createdAt,value
2018-03-30T00:00:52.058Z,981.53
2018-03-30T00:01:52.201Z,981.52
2018-03-30T00:02:52.348Z,981.54
2018-03-30T00:03:52.489Z,981.50
2018-03-30T00:04:52.632Z,981.52
2018-03-30T00:05:52.782Z,981.51
2018-03-30T00:06:52.924Z,981.53
2018-03-30T00:07:53.066Z,981.47
2018-03-30T00:08:53.211Z,981.49
2018-03-30T00:09:53.356Z,981.49
2018-03-30T00:10:53.507Z,981.46
2018-03-30T00:11:53.651Z,981.45
2018-03-30T00:12:53.798Z,981.43
2018-03-30T00:13:53.938Z,981.44
2018-03-30T00:14:54.081Z,981.43
2018-03-30T00:15:54.226Z,981.40
2018-03-30T00:16:54.373Z,981.43
2018-03-30T00:17:54.519Z,981.43
2018-03-30T00:18:54.664Z,981.39
2018-03-30T00:19:54.817Z,981.37
2018-03-30T00:20:54.958Z,981.36
2018-03-30T00:21:55.099Z,981.33
2018-03-30T00:22:55.243Z,981.34
2018-03-30T00:23:55.388Z,981.31
2018-03-30T00:24:55.535Z,981.34
2018-03-30T00:25:55.682Z,981.37
2018-03-30T00:26:55.840Z,981.37
2018-03-30T00:27:55.987Z,981.33
2018-03-30T00:28:56.132Z,981.34
2018-03-30T00:29:56.277Z,981.32
2018-03-30T00:30:56.421Z,981.26
2018-03-30T00:31:56.575Z,981.31
2018-03-30T00:32:56.722Z,981.28
2018-03-30T00:33:56.865Z,981.31
2018-03-30T00:34:57.013Z,981.27
2018-03-30T00:35:57.154Z,981.27
2018-03-30T00:36:57.299Z,981.28
2018-03-30T00:37:57.443Z,981.30
2018-03-30T00:38:57.585Z,981.26
2018-03-30T00:39:57.738Z,981.30
2018-03-30T00:40:57.871Z,981.31
2018-03-30T00:41:58.014Z,981.25
2018-03-30T00:42:58.159Z,981.23
2018-03-30T00:43:58.303Z,981.25
2018-03-30T00:44:58.450Z,981.25
2018-03-30T00:45:58.596Z,981.24
2018-03-30T00:46:58.739Z,981.22
2018-03-30T00:47:58.891Z,981.23
2018-03-30T00:48:59.032Z,981.26
2018-03-30T00:49:59.179Z,981.25
2018-03-30T00:50:59.322Z,981.31
2018-03-30T00:51:59.469Z,981.27
2018-03-30T00:52:59.614Z,981.29
2018-03-30T00:53:59.759Z,981.24
2018-03-30T00:54:59.905Z,981.26
2018-03-30T00:56:00.048Z,981.24
2018-03-30T00:57:00.194Z,981.23
2018-03-30T00:58:00.338Z,981.23
2018-03-30T00:59:00.484Z,981.17
2018-03-30T01:00:00.630Z,981.16
2018-03-30T01:01:00.776Z,981.15
2018-03-30T01:02:00.927Z,981.12
2018-03-30T01:03:01.064Z,981.12
2018-03-30T01:04:01.211Z,981.10
2018-03-30T01:05:01.357Z,981.09
2018-03-30T01:06:01.500Z,981.08
2018-03-30T01:07:01.646Z,981.09
2018-03-30T01:08:01.793Z,981.08
2018-03-30T01:09:01.935Z,981.07
2018-03-30T01:10:02.126Z,981.07
2018-03-30T01:11:02.226Z,981.04
2018-03-30T01:12:02.370Z,981.06
2018-03-30T01:13:02.517Z,981.08
2018-03-30T01:14:02.661Z,981.07
2018-03-30T01:15:02.805Z,981.09
2018-03-30T01:16:02.956Z,981.13
2018-03-30T01:17:03.097Z,981.14
2018-03-30T01:18:03.239Z,981.13
2018-03-30T01:19:03.386Z,981.14
2018-03-30T01:20:03.530Z,981.11
2018-03-30T01:21:03.674Z,981.13
2018-03-30T01:22:03.818Z,981.12
2018-03-30T01:23:03.964Z,981.14
2018-03-30T01:24:04.109Z,981.10
2018-03-30T01:25:04.255Z,981.11
2018-03-30T01:26:04.405Z,981.07
2018-03-30T01:27:04.544Z,981.06
2018-03-30T01:28:04.690Z,981.04
2018-03-30T01:29:04.834Z,981.05
2018-03-30T01:30:04.981Z,981.05
2018-03-30T01:31:05.128Z,981.08
2018-03-30T01:32:05.269Z,981.04
2018-03-30T01:33:05.414Z,981.02
2018-03-30T01:34:05.556Z,981.03
2018-03-30T01:35:05.698Z,981.02
2018-03-30T01:36:05.843Z,981.03
2018-03-30T01:37:05.987Z,981.00
2018-03-30T01:38:06.136Z,981.06
2018-03-30T01:39:06.275Z,980.99
2018-03-30T01:40:06.421Z,980.97
2018-03-30T01:41:06.570Z,980.96
2018-03-30T01:42:06.710Z,980.94
2018-03-30T01:43:06.856Z,980.93
2018-03-30T01:44:07.002Z,980.93
2018-03-30T01:45:07.147Z,980.89
2018-03-30T01:46:07.292Z,980.91
2018-03-30T01:47:07.438Z,980.84
2018-03-30T01:48:07.581Z,980.88
2018-03-30T01:49:07.725Z,980.87
2018-03-30T01:50:07.870Z,980.87
2018-03-30T01:51:08.014Z,980.84
2018-03-30T01:52:08.159Z,980.82
2018-03-30T01:53:08.310Z,980.80
2018-03-30T01:54:08.453Z,980.79
2018-03-30T01:55:08.591Z,980.74
2018-03-30T01:56:08.740Z,980.74
2018-03-30T01:57:08.883Z,980.72
2018-03-30T01:58:09.030Z,980.70
2018-03-30T01:59:09.173Z,980.69
2018-03-30T02:00:09.317Z,980.73
2018-03-30T02:01:09.464Z,980.70
2018-03-30T02:02:09.609Z,980.70
2018-03-30T02:03:09.755Z,980.68
2018-03-30T02:04:09.900Z,980.69
2018-03-30T02:05:10.046Z,980.67
2018-03-30T02:06:10.190Z,980.65
2018-03-30T02:07:10.336Z,980.65
2018-03-30T02:08:10.491Z,980.65
2018-03-30T02:09:10.626Z,980.60
2018-03-30T02:10:10.769Z,980.56
2018-03-30T02:11:10.918Z,980.57
2018-03-30T02:12:11.061Z,980.54
2018-03-30T02:13:11.206Z,980.53
2018-03-30T02:14:11.349Z,980.53
2018-03-30T02:15:11.495Z,980.52
2018-03-30T02:16:11.640Z,980.53
2018-03-30T02:17:11.785Z,980.50
2018-03-30T02:18:11.931Z,980.48
2018-03-30T02:19:12.078Z,980.46
2018-03-30T02:20:12.276Z,980.51
2018-03-30T02:21:12.368Z,980.45
2018-03-30T02:22:12.515Z,980.44
2018-03-30T02:23:12.660Z,980.40
2018-03-30T02:24:12.803Z,980.33
2018-03-30T02:25:12.949Z,980.38
2018-03-30T02:26:13.095Z,980.31
2018-03-30T02:27:13.241Z,980.33
2018-03-30T02:28:13.386Z,980.29
2018-03-30T02:29:13.529Z,980.32
2018-03-30T02:30:13.685Z,980.29
2018-03-30T02:31:13.828Z,980.27
2018-03-30T02:32:13.969Z,980.26
2018-03-30T02:33:14.116Z,980.31
2018-03-30T02:34:14.258Z,980.30
2018-03-30T02:35:14.410Z,980.29
2018-03-30T02:36:14.546Z,980.31
2018-03-30T02:37:14.692Z,980.27
2018-03-30T02:38:14.835Z,980.30
2018-03-30T02:39:14.983Z,980.28
2018-03-30T02:40:15.135Z,980.30
2018-03-30T02:41:15.275Z,980.28
2018-03-30T02:42:15.418Z,980.26
2018-03-30T02:43:15.565Z,980.32
2018-03-30T02:44:15.712Z,980.30
2018-03-30T02:45:15.856Z,980.31
2018-03-30T02:46:16.001Z,980.31
2018-03-30T02:47:16.143Z,980.30
2018-03-30T02:48:16.288Z,980.31
2018-03-30T02:49:16.435Z,980.32
2018-03-30T02:50:16.603Z,980.28
2018-03-30T02:51:16.726Z,980.31
2018-03-30T02:52:16.875Z,980.30
2018-03-30T02:53:17.021Z,980.34
2018-03-30T02:54:17.166Z,980.36
2018-03-30T02:55:17.310Z,980.35
2018-03-30T02:56:17.456Z,980.36
2018-03-30T02:57:17.600Z,980.36
2018-03-30T02:58:17.746Z,980.34
2018-03-30T02:59:17.891Z,980.32
2018-03-30T03:00:18.036Z,980.34
2018-03-30T03:01:18.179Z,980.37
2018-03-30T03:02:18.323Z,980.32
2018-03-30T03:03:18.469Z,980.31
2018-03-30T03:04:18.616Z,980.31
2018-03-30T03:05:18.761Z,980.32
2018-03-30T03:06:18.909Z,980.31
2018-03-30T03:07:19.054Z,980.31
2018-03-30T03:08:19.197Z,980.34
2018-03-30T03:09:19.343Z,980.34
2018-03-30T03:10:19.489Z,980.35
2018-03-30T03:11:19.635Z,980.37
2018-03-30T03:12:19.777Z,980.35
2018-03-30T03:13:19.925Z,980.36
2018-03-30T03:14:20.067Z,980.39
2018-03-30T03:15:20.216Z,980.37
2018-03-30T03:16:20.366Z,980.40
2018-03-30T03:17:20.505Z,980.38
2018-03-30T03:18:20.647Z,980.38
2018-03-30T03:19:20.795Z,980.39
2018-03-30T03:20:20.939Z,980.32
2018-03-30T03:21:21.091Z,980.33
2018-03-30T03:22:21.229Z,980.32
2018-03-30T03:23:21.375Z,980.32
2018-03-30T03:24:21.520Z,980.35
2018-03-30T03:25:21.667Z,980.31
2018-03-30T03:26:21.807Z,980.32
2018-03-30T03:27:21.965Z,980.31
2018-03-30T03:28:22.109Z,980.27
2018-03-30T03:29:22.255Z,980.28
2018-03-30T03:30:22.401Z,980.26
2018-03-30T03:31:22.545Z,980.26
2018-03-30T03:32:22.688Z,980.23
2018-03-30T03:33:22.836Z,980.24
2018-03-30T03:34:22.982Z,980.23
2018-03-30T03:35:23.127Z,980.27
2018-03-30T03:36:23.277Z,980.23
2018-03-30T03:37:23.422Z,980.19
2018-03-30T03:38:23.569Z,980.17
2018-03-30T03:39:23.709Z,980.22
2018-03-30T03:40:23.855Z,980.23
2018-03-30T03:41:23.997Z,980.19
2018-03-30T03:42:24.146Z,980.23
2018-03-30T03:43:24.290Z,980.20
2018-03-30T03:44:24.486Z,980.20
2018-03-30T03:45:24.579Z,980.20
2018-03-30T03:46:24.726Z,980.22
2018-03-30T03:47:24.871Z,980.21
2018-03-30T03:48:25.015Z,980.21
2018-03-30T03:49:25.177Z,980.20
2018-03-30T03:50:25.312Z,980.21
2018-03-30T03:51:25.464Z,980.20
2018-03-30T03:52:25.602Z,980.19
2018-03-30T03:53:25.743Z,980.17
2018-03-30T03:54:25.891Z,980.12
2018-03-30T03:55:26.040Z,980.14
2018-03-30T03:56:26.183Z,980.14
2018-03-30T03:57:26.328Z,980.15
2018-03-30T03:58:26.474Z,980.11
2018-03-30T03:59:26.633Z,980.18
2018-03-30T04:00:26.768Z,980.17
2018-03-30T04:01:26.910Z,980.12
2018-03-30T04:02:27.056Z,980.14
2018-03-30T04:03:27.200Z,980.12
2018-03-30T04:04:27.343Z,980.12
2018-03-30T04:05:27.490Z,980.11
2018-03-30T04:06:27.641Z,980.11
2018-03-30T04:07:27.780Z,980.13
2018-03-30T04:08:27.927Z,980.14
2018-03-30T04:09:28.071Z,980.13
2018-03-30T04:10:28.216Z,980.11
2018-03-30T04:11:28.364Z,980.13
2018-03-30T04:12:28.508Z,980.13
2018-03-30T04:13:28.654Z,980.11
2018-03-30T04:14:28.798Z,980.07
2018-03-30T04:15:28.943Z,980.10
2018-03-30T04:16:29.087Z,980.13
2018-03-30T04:17:29.231Z,980.14
2018-03-30T04:18:29.375Z,980.10
2018-03-30T04:19:29.520Z,980.11
2018-03-30T04:20:29.663Z,980.12
2018-03-30T04:21:29.810Z,980.13
2018-03-30T04:22:29.954Z,980.09
2018-03-30T04:23:30.098Z,980.10
2018-03-30T04:24:30.246Z,980.05
2018-03-30T04:25:30.399Z,980.05
2018-03-30T04:26:30.537Z,980.09
2018-03-30T04:27:30.685Z,980.04
2018-03-30T04:28:30.831Z,980.07
2018-03-30T04:29:30.980Z,980.06
2018-03-30T04:30:31.121Z,980.03
2018-03-30T04:31:31.264Z,980.10
2018-03-30T04:32:31.409Z,980.08
2018-03-30T04:33:31.557Z,980.12
2018-03-30T04:34:31.702Z,980.10
2018-03-30T04:35:31.844Z,980.07
2018-03-30T04:36:31.989Z,980.08
2018-03-30T04:37:32.179Z,980.02
2018-03-30T04:38:32.282Z,980.05
2018-03-30T04:39:32.424Z,980.01
2018-03-30T04:40:32.591Z,980.00
2018-03-30T04:41:32.714Z,980.02
2018-03-30T04:42:32.861Z,980.00
2018-03-30T04:43:33.005Z,980.02
2018-03-30T04:44:33.148Z,980.00
2018-03-30T04:45:33.298Z,980.03
2018-03-30T04:46:33.444Z,980.04
2018-03-30T04:47:33.585Z,980.01
2018-03-30T04:48:33.728Z,980.05
2018-03-30T04:49:33.875Z,980.02
2018-03-30T04:50:34.019Z,980.06
2018-03-30T04:51:34.167Z,980.05
2018-03-30T04:52:34.314Z,980.04
2018-03-30T04:53:34.456Z,980.05
2018-03-30T04:54:34.600Z,980.02
2018-03-30T04:55:34.747Z,980.04
2018-03-30T04:56:34.895Z,980.03
2018-03-30T04:57:35.041Z,980.02
2018-03-30T04:58:35.187Z,980.02
2018-03-30T04:59:35.334Z,979.96
2018-03-30T05:00:35.476Z,979.95
2018-03-30T05:01:35.623Z,979.94
2018-03-30T05:02:35.766Z,979.92
2018-03-30T05:03:35.911Z,979.95
2018-03-30T05:04:36.057Z,979.94
2018-03-30T05:05:36.201Z,979.91
2018-03-30T05:06:36.346Z,979.93
2018-03-30T05:07:36.494Z,979.90
2018-03-30T05:08:36.640Z,979.92
2018-03-30T05:09:36.783Z,979.92
2018-03-30T05:10:36.928Z,979.92
2018-03-30T05:11:37.072Z,979.94
2018-03-30T05:12:37.220Z,979.98
2018-03-30T05:13:37.364Z,979.98
2018-03-30T05:14:37.508Z,979.97
2018-03-30T05:15:37.652Z,979.94
2018-03-30T05:16:37.796Z,979.91
2018-03-30T05:17:37.942Z,979.85
2018-03-30T05:18:38.089Z,979.90
2018-03-30T05:19:38.233Z,979.87
2018-03-30T05:20:38.378Z,979.87
2018-03-30T05:21:38.522Z,979.86
2018-03-30T05:22:38.666Z,979.85
2018-03-30T05:23:38.812Z,979.90
2018-03-30T05:24:38.960Z,979.87
2018-03-30T05:25:39.110Z,979.92
2018-03-30T05:26:39.253Z,979.89
2018-03-30T05:27:39.399Z,979.90
2018-03-30T05:28:39.542Z,979.91
2018-03-30T05:29:39.688Z,979.95
2018-03-30T05:30:39.837Z,979.98
2018-03-30T05:31:39.984Z,979.97
2018-03-30T05:32:40.131Z,979.94
2018-03-30T05:33:40.274Z,979.92
2018-03-30T05:34:40.417Z,979.92
2018-03-30T05:35:40.561Z,979.92
2018-03-30T05:36:40.703Z,979.96
2018-03-30T05:37:40.851Z,979.97
2018-03-30T05:38:40.997Z,979.95
2018-03-30T05:39:41.180Z,979.98
2018-03-30T05:40:41.286Z,979.98
2018-03-30T05:41:41.433Z,979.99
2018-03-30T05:42:41.580Z,980.01
2018-03-30T05:43:41.725Z,980.04
2018-03-30T05:44:41.876Z,980.02
2018-03-30T05:45:42.014Z,980.02
2018-03-30T05:46:42.164Z,980.03
2018-03-30T05:47:42.304Z,980.00
2018-03-30T05:48:42.452Z,979.99
2018-03-30T05:49:42.597Z,979.98
2018-03-30T05:50:42.749Z,979.98
2018-03-30T05:51:42.887Z,979.98
2018-03-30T05:52:43.033Z,979.99
2018-03-30T05:53:43.181Z,979.99
2018-03-30T05:54:43.323Z,980.00
2018-03-30T05:55:43.471Z,980.01
2018-03-30T05:56:43.625Z,979.98
2018-03-30T05:57:43.761Z,979.98
2018-03-30T05:58:43.906Z,979.99
2018-03-30T05:59:44.052Z,979.96
2018-03-30T06:00:44.194Z,979.95
2018-03-30T06:01:44.341Z,979.95
2018-03-30T06:02:44.482Z,979.96
2018-03-30T06:03:44.627Z,979.94
2018-03-30T06:04:44.772Z,979.96
2018-03-30T06:05:44.919Z,979.93
2018-03-30T06:06:45.063Z,979.96
2018-03-30T06:07:45.205Z,979.92
2018-03-30T06:08:45.352Z,979.94
2018-03-30T06:09:45.553Z,979.97
2018-03-30T06:10:45.643Z,980.00
2018-03-30T06:11:45.790Z,979.97
2018-03-30T06:12:45.935Z,979.99
2018-03-30T06:13:46.079Z,980.02
2018-03-30T06:14:46.228Z,980.02
2018-03-30T06:15:46.370Z,980.07
2018-03-30T06:16:46.516Z,980.08
2018-03-30T06:17:46.661Z,980.05
2018-03-30T06:18:46.809Z,980.05
2018-03-30T06:19:46.953Z,980.00
2018-03-30T06:20:47.098Z,979.96
2018-03-30T06:21:47.244Z,979.96
2018-03-30T06:22:47.389Z,979.99
2018-03-30T06:23:47.537Z,979.97
2018-03-30T06:24:47.684Z,979.96
2018-03-30T06:25:47.830Z,979.95
2018-03-30T06:26:47.977Z,979.94
2018-03-30T06:27:48.120Z,979.96
2018-03-30T06:28:48.269Z,979.91
2018-03-30T06:29:48.413Z,979.93
2018-03-30T06:30:48.558Z,979.93
2018-03-30T06:31:48.704Z,979.97
2018-03-30T06:32:48.846Z,979.95
2018-03-30T06:33:48.994Z,979.92
2018-03-30T06:34:49.140Z,979.91
2018-03-30T06:35:49.287Z,979.90
2018-03-30T06:36:49.435Z,979.88
2018-03-30T06:37:49.585Z,979.86
2018-03-30T06:38:49.724Z,979.89
2018-03-30T06:39:49.869Z,979.88
2018-03-30T06:40:50.017Z,979.87
2018-03-30T06:41:50.164Z,979.90
2018-03-30T06:42:50.308Z,979.91
2018-03-30T06:43:50.457Z,979.95
2018-03-30T06:44:50.600Z,979.98
2018-03-30T06:45:50.747Z,979.99
2018-03-30T06:46:50.892Z,979.97
2018-03-30T06:47:51.038Z,979.95
2018-03-30T06:48:51.182Z,979.96
2018-03-30T06:49:51.371Z,979.93
2018-03-30T06:50:51.475Z,979.92
2018-03-30T06:51:51.621Z,979.94
2018-03-30T06:52:51.766Z,979.92
2018-03-30T06:53:51.923Z,979.90
2018-03-30T06:54:52.044Z,979.92
2018-03-30T06:55:52.193Z,979.92
2018-03-30T06:56:52.343Z,979.86
2018-03-30T06:57:52.486Z,979.89
2018-03-30T06:58:52.630Z,979.84
2018-03-30T06:59:52.777Z,979.87
2018-03-30T07:00:52.924Z,979.88
2018-03-30T07:01:53.069Z,979.88
2018-03-30T07:02:53.217Z,979.84
2018-03-30T07:03:53.362Z,979.85
2018-03-30T07:04:53.511Z,979.85
2018-03-30T07:05:53.656Z,979.88
2018-03-30T07:06:53.808Z,979.89
2018-03-30T07:07:53.951Z,979.86
2018-03-30T07:08:54.096Z,979.92
2018-03-30T07:09:54.244Z,979.89
2018-03-30T07:10:54.391Z,979.87
2018-03-30T07:11:54.540Z,979.89
2018-03-30T07:12:54.684Z,979.89
2018-03-30T07:13:54.832Z,979.87
2018-03-30T07:14:54.979Z,979.85
2018-03-30T07:15:55.124Z,979.82
2018-03-30T07:16:55.268Z,979.82
2018-03-30T07:17:55.414Z,979.76
2018-03-30T07:18:55.561Z,979.77
2018-03-30T07:19:55.708Z,979.76
2018-03-30T07:20:55.851Z,979.74
2018-03-30T07:21:56.001Z,979.76
2018-03-30T07:22:56.147Z,979.75
2018-03-30T07:23:56.291Z,979.77
2018-03-30T07:24:56.437Z,979.77
2018-03-30T07:25:56.584Z,979.72
2018-03-30T07:26:56.733Z,979.72
2018-03-30T07:27:56.875Z,979.69
2018-03-30T07:28:57.023Z,979.68
2018-03-30T07:29:57.172Z,979.72
2018-03-30T07:30:57.317Z,979.71
2018-03-30T07:31:57.467Z,979.74
2018-03-30T07:32:57.606Z,979.76
2018-03-30T07:33:57.753Z,979.76
2018-03-30T07:34:57.902Z,979.73
2018-03-30T07:35:58.051Z,979.74
2018-03-30T07:36:58.201Z,979.76
2018-03-30T07:37:58.347Z,979.72
2018-03-30T07:38:58.492Z,979.71
2018-03-30T07:39:58.645Z,979.71
2018-03-30T07:40:58.788Z,979.70
2018-03-30T07:41:58.938Z,979.72
2018-03-30T07:42:59.084Z,979.69
2018-03-30T07:43:59.230Z,979.68
2018-03-30T07:44:59.377Z,979.66
2018-03-30T07:45:59.523Z,979.68
2018-03-30T07:46:59.672Z,979.69
2018-03-30T07:47:59.815Z,979.71
2018-03-30T07:48:59.969Z,979.71
2018-03-30T07:50:00.176Z,979.67
2018-03-30T07:51:00.265Z,979.66
2018-03-30T07:52:00.412Z,979.69
2018-03-30T07:53:00.564Z,979.74
2018-03-30T07:54:00.712Z,979.71
2018-03-30T07:55:00.857Z,979.74
2018-03-30T07:56:01.003Z,979.70
2018-03-30T07:57:01.149Z,979.67
2018-03-30T07:58:01.299Z,979.63
2018-03-30T07:59:01.446Z,979.62
2018-03-30T08:00:01.592Z,979.65
2018-03-30T08:01:01.737Z,979.67
2018-03-30T08:02:01.906Z,979.63
2018-03-30T08:03:02.030Z,979.62
2018-03-30T08:04:02.175Z,979.61
2018-03-30T08:05:02.323Z,979.62
2018-03-30T08:06:02.471Z,979.57
2018-03-30T08:07:02.616Z,979.57
2018-03-30T08:08:02.768Z,979.57
2018-03-30T08:09:02.947Z,979.58
2018-03-30T08:10:03.066Z,979.61
2018-03-30T08:11:03.203Z,979.57
2018-03-30T08:12:03.349Z,979.55
2018-03-30T08:13:03.498Z,979.55
2018-03-30T08:14:03.646Z,979.64
2018-03-30T08:15:03.793Z,979.63
2018-03-30T08:16:03.940Z,979.60
2018-03-30T08:17:04.090Z,979.60
2018-03-30T08:18:04.237Z,979.56
2018-03-30T08:19:04.383Z,979.50
2018-03-30T08:20:04.530Z,979.52
2018-03-30T08:21:04.687Z,979.47
2018-03-30T08:22:04.826Z,979.50
2018-03-30T08:23:04.974Z,979.47
2018-03-30T08:24:05.120Z,979.46
2018-03-30T08:25:05.268Z,979.42
2018-03-30T08:26:05.418Z,979.37
2018-03-30T08:27:05.566Z,979.48
2018-03-30T08:28:05.802Z,979.43
2018-03-30T08:29:05.854Z,979.43
2018-03-30T08:30:06.005Z,979.43
2018-03-30T08:31:06.152Z,979.42
2018-03-30T08:32:06.302Z,979.44
2018-03-30T08:33:06.450Z,979.45
2018-03-30T08:34:06.700Z,979.46
2018-03-30T08:35:06.779Z,979.47
2018-03-30T08:36:06.929Z,979.40
2018-03-30T08:37:07.073Z,979.42
2018-03-30T08:38:07.219Z,979.36
2018-03-30T08:39:07.368Z,979.38
2018-03-30T08:40:07.519Z,979.37
2018-03-30T08:41:07.668Z,979.35
2018-03-30T08:42:07.818Z,979.38
2018-03-30T08:43:07.965Z,979.31
2018-03-30T08:44:08.115Z,979.33
2018-03-30T08:45:08.265Z,979.28
2018-03-30T08:46:08.414Z,979.30
2018-03-30T08:47:08.562Z,979.28
2018-03-30T08:48:08.712Z,979.27
2018-03-30T08:49:08.858Z,979.27
2018-03-30T08:50:09.009Z,979.26
2018-03-30T08:51:09.158Z,979.22
2018-03-30T08:52:09.306Z,979.22
2018-03-30T08:53:09.456Z,979.20
2018-03-30T08:54:09.606Z,979.20
2018-03-30T08:55:09.753Z,979.17
2018-03-30T08:56:09.907Z,979.16
2018-03-30T08:57:10.049Z,979.18
2018-03-30T08:58:10.199Z,979.19
2018-03-30T08:59:10.348Z,979.16
2018-03-30T09:00:10.495Z,979.14
2018-03-30T09:01:10.646Z,979.08
2018-03-30T09:02:10.824Z,979.08
2018-03-30T09:03:10.946Z,979.05
2018-03-30T09:04:11.094Z,979.03
2018-03-30T09:05:11.247Z,979.00
2018-03-30T09:06:11.392Z,978.99
2018-03-30T09:07:11.540Z,978.97
2018-03-30T09:08:11.696Z,978.91
2018-03-30T09:09:11.853Z,978.94
2018-03-30T09:10:12.001Z,978.92
2018-03-30T09:11:12.148Z,978.85
2018-03-30T09:12:12.298Z,978.83
2018-03-30T09:13:12.448Z,978.78
2018-03-30T09:14:12.601Z,978.78
2018-03-30T09:15:12.751Z,978.78
2018-03-30T09:16:12.901Z,978.78
2018-03-30T09:17:13.043Z,978.74
2018-03-30T09:18:13.200Z,978.72
2018-03-30T09:19:13.347Z,978.71
2018-03-30T09:20:13.496Z,978.73
2018-03-30T09:21:13.644Z,978.69
2018-03-30T09:22:13.794Z,978.70
2018-03-30T09:23:13.944Z,978.68
2018-03-30T09:24:14.103Z,978.67
2018-03-30T09:25:14.253Z,978.63
2018-03-30T09:26:14.402Z,978.59
2018-03-30T09:27:14.559Z,978.56
2018-03-30T09:28:14.704Z,978.50
2018-03-30T09:29:14.854Z,978.49
2018-03-30T09:30:15.003Z,978.48
2018-03-30T09:31:15.152Z,978.49
2018-03-30T09:32:15.300Z,978.46
2018-03-30T09:33:15.452Z,978.44
2018-03-30T09:34:15.604Z,978.45
2018-03-30T09:35:15.762Z,978.43
2018-03-30T09:36:15.914Z,978.45
2018-03-30T09:37:16.064Z,978.41
2018-03-30T09:38:16.212Z,978.40
2018-03-30T09:39:16.362Z,978.37
2018-03-30T09:40:16.514Z,978.34
2018-03-30T09:41:16.666Z,978.35
2018-03-30T09:42:16.817Z,978.35
2018-03-30T09:43:16.967Z,978.34
2018-03-30T09:44:17.118Z,978.34
2018-03-30T09:45:17.269Z,978.32
2018-03-30T09:46:17.425Z,978.29
2018-03-30T09:47:17.576Z,978.29
2018-03-30T09:48:17.726Z,978.30
2018-03-30T09:49:17.881Z,978.26
2018-03-30T09:50:18.026Z,978.24
2018-03-30T09:51:18.187Z,978.28
2018-03-30T09:52:18.340Z,978.26
2018-03-30T09:53:18.488Z,978.22
2018-03-30T09:54:18.639Z,978.17
2018-03-30T09:55:18.789Z,978.18
2018-03-30T09:56:18.940Z,978.18
2018-03-30T09:57:19.090Z,978.16
2018-03-30T09:58:19.242Z,978.16
2018-03-30T09:59:19.391Z,978.13
2018-03-30T10:00:19.544Z,978.05
2018-03-30T10:01:19.698Z,978.12
2018-03-30T10:02:19.849Z,978.11
2018-03-30T10:03:19.999Z,978.11
2018-03-30T10:04:20.177Z,978.12
2018-03-30T10:05:20.323Z,978.07
2018-03-30T10:06:20.470Z,978.05
2018-03-30T10:07:20.625Z,978.09
2018-03-30T10:08:20.778Z,978.07
2018-03-30T10:09:20.928Z,978.04
2018-03-30T10:10:21.079Z,978.04
2018-03-30T10:11:21.231Z,978.07
2018-03-30T10:12:21.384Z,978.05
2018-03-30T10:13:21.561Z,978.00
2018-03-30T10:14:21.690Z,978.00
2018-03-30T10:15:21.847Z,977.99
2018-03-30T10:16:21.994Z,977.98
2018-03-30T10:17:22.148Z,977.93
2018-03-30T10:18:22.299Z,977.96
2018-03-30T10:19:22.452Z,977.89
2018-03-30T10:20:22.608Z,977.87
2018-03-30T10:21:22.755Z,977.92
2018-03-30T10:22:22.907Z,977.93
2018-03-30T10:23:23.062Z,977.95
2018-03-30T10:24:23.209Z,977.95
2018-03-30T10:25:23.353Z,977.94
2018-03-30T10:26:23.544Z,977.89
2018-03-30T10:27:23.651Z,977.88
2018-03-30T10:28:23.804Z,977.88
2018-03-30T10:29:23.956Z,977.81
2018-03-30T10:30:24.108Z,977.77
2018-03-30T10:31:24.261Z,977.78
2018-03-30T10:32:24.418Z,977.73
2018-03-30T10:33:24.568Z,977.76
2018-03-30T10:34:24.722Z,977.75
2018-03-30T10:35:24.875Z,977.69
2018-03-30T10:36:25.027Z,977.71
2018-03-30T10:37:25.180Z,977.75
2018-03-30T10:38:25.333Z,977.76
2018-03-30T10:39:25.486Z,977.71
2018-03-30T10:40:25.640Z,977.71
2018-03-30T10:41:25.791Z,977.71
2018-03-30T10:42:25.946Z,977.73
2018-03-30T10:43:26.098Z,977.73
2018-03-30T10:44:26.251Z,977.68
2018-03-30T10:45:26.403Z,977.73
2018-03-30T10:46:26.606Z,977.71
2018-03-30T10:47:26.710Z,977.68
2018-03-30T10:48:26.866Z,977.65
2018-03-30T10:49:27.021Z,977.60
2018-03-30T10:50:27.198Z,977.61
2018-03-30T10:51:27.435Z,977.57
2018-03-30T10:52:27.701Z,977.56
2018-03-30T10:53:27.757Z,977.56
2018-03-30T10:54:27.753Z,977.56
2018-03-30T10:55:27.930Z,977.58
2018-03-30T10:56:28.051Z,977.49
2018-03-30T10:57:28.209Z,977.51
2018-03-30T10:58:28.359Z,977.45
2018-03-30T10:59:28.516Z,977.45
2018-03-30T11:00:28.666Z,977.42
2018-03-30T11:01:28.856Z,977.42
2018-03-30T11:02:28.964Z,977.33
2018-03-30T11:03:29.112Z,977.35
2018-03-30T11:04:29.280Z,977.32
2018-03-30T11:05:29.434Z,977.27
2018-03-30T11:06:29.587Z,977.23
2018-03-30T11:07:29.737Z,977.17
2018-03-30T11:08:29.890Z,977.16
2018-03-30T11:09:30.039Z,977.08
2018-03-30T11:10:30.193Z,977.05
2018-03-30T11:11:30.345Z,977.05
2018-03-30T11:12:30.498Z,976.97
2018-03-30T11:13:30.652Z,977.01
2018-03-30T11:14:30.818Z,976.92
2018-03-30T11:15:30.962Z,976.92
2018-03-30T11:16:31.120Z,976.84
2018-03-30T11:17:31.278Z,976.80
2018-03-30T11:18:31.419Z,976.79
2018-03-30T11:19:31.554Z,976.72
2018-03-30T11:20:31.724Z,976.72
2018-03-30T11:21:31.871Z,976.66
2018-03-30T11:22:32.006Z,976.63
2018-03-30T11:23:32.148Z,976.58
2018-03-30T11:24:32.298Z,976.52
2018-03-30T11:25:32.492Z,976.53
2018-03-30T11:26:32.596Z,976.48
2018-03-30T11:27:32.749Z,976.46
2018-03-30T11:28:32.907Z,976.42
2018-03-30T11:29:33.055Z,976.40
2018-03-30T11:30:33.207Z,976.38
2018-03-30T11:31:33.354Z,976.39
2018-03-30T11:32:33.497Z,976.37
2018-03-30T11:33:33.659Z,976.41
2018-03-30T11:34:33.797Z,976.37
2018-03-30T11:35:33.956Z,976.36
2018-03-30T11:36:34.099Z,976.36
2018-03-30T11:37:34.249Z,976.39
2018-03-30T11:38:34.402Z,976.43
2018-03-30T11:39:34.552Z,976.46
2018-03-30T11:40:34.702Z,976.47
2018-03-30T11:41:34.865Z,976.48
2018-03-30T11:42:34.997Z,976.51
2018-03-30T11:43:35.152Z,976.47
2018-03-30T11:44:35.304Z,976.43
2018-03-30T11:45:35.456Z,976.42
2018-03-30T11:46:35.615Z,976.44
2018-03-30T11:47:35.765Z,976.35
2018-03-30T11:48:35.925Z,976.36
2018-03-30T11:49:36.075Z,976.32
2018-03-30T11:50:36.229Z,976.31
2018-03-30T11:51:36.383Z,976.33
2018-03-30T11:52:36.537Z,976.30
2018-03-30T11:53:36.690Z,976.28
2018-03-30T11:54:36.843Z,976.28
2018-03-30T11:55:37.000Z,976.22
2018-03-30T11:56:37.155Z,976.25
2018-03-30T11:57:37.309Z,976.27
2018-03-30T11:58:37.467Z,976.22
2018-03-30T11:59:37.620Z,976.23
2018-03-30T12:00:37.777Z,976.29
2018-03-30T12:01:37.928Z,976.32
2018-03-30T12:02:38.087Z,976.28
2018-03-30T12:03:38.241Z,976.24
2018-03-30T12:04:38.394Z,976.22
2018-03-30T12:05:38.549Z,976.12
2018-03-30T12:06:38.711Z,976.15
2018-03-30T12:07:38.861Z,976.12
2018-03-30T12:08:39.018Z,976.14
2018-03-30T12:09:39.184Z,976.12
2018-03-30T12:10:39.334Z,976.10
2018-03-30T12:11:39.482Z,976.11
2018-03-30T12:12:39.643Z,976.07
2018-03-30T12:13:39.796Z,976.11
2018-03-30T12:14:39.950Z,976.05
2018-03-30T12:15:40.106Z,976.07
2018-03-30T12:16:40.260Z,976.03
2018-03-30T12:17:40.413Z,976.02
2018-03-30T12:18:40.570Z,976.02
2018-03-30T12:19:40.724Z,975.99
2018-03-30T12:20:40.881Z,975.97
2018-03-30T12:21:41.042Z,975.94
2018-03-30T12:22:41.206Z,975.94
2018-03-30T12:23:41.366Z,975.86
2018-03-30T12:24:41.518Z,975.90
2018-03-30T12:25:41.668Z,975.90
2018-03-30T12:26:41.825Z,975.87
2018-03-30T12:27:41.980Z,975.92
2018-03-30T12:28:42.133Z,975.88
2018-03-30T12:29:42.290Z,975.91
2018-03-30T12:30:42.447Z,975.90